createdAt,value
2022-12-11T00:00:53.907Z,98143.67
2022-12-11T00:03:40.825Z,98144.02
2022-12-11T00:06:11.056Z,98148.71
2022-12-11T00:08:39.278Z,98138.52
2022-12-11T00:11:13.178Z,98125.73
2022-12-11T00:13:40.950Z,98131.64
2022-12-11T00:16:09.718Z,98140.81
2022-12-11T00:18:37.765Z,98129.59
2022-12-11T00:21:07.626Z,98127.54
2022-12-11T00:23:36.747Z,98116.48
2022-12-11T00:26:10.573Z,98113.20
2022-12-11T00:28:38.494Z,98121.88
2022-12-11T00:31:07.916Z,98119.46
2022-12-11T00:33:35.521Z,98117.41
2022-12-11T00:36:03.568Z,98117.40
2022-12-11T00:38:31.171Z,98115.00
2022-12-11T00:40:59.783Z,98110.52
2022-12-11T00:43:27.355Z,98113.30
2022-12-11T00:45:55.023Z,98104.66
2022-12-11T00:48:22.825Z,98105.02
2022-12-11T00:50:50.410Z,98106.60
2022-12-11T00:53:18.124Z,98111.61
2022-12-11T00:55:45.740Z,98114.05
2022-12-11T00:58:13.760Z,98121.48
2022-12-11T01:00:42.584Z,98128.75
2022-12-11T01:03:13.092Z,98126.88
2022-12-11T01:05:40.928Z,98116.85
2022-12-11T01:08:08.639Z,98115.98
2022-12-11T01:10:36.308Z,98120.48
2022-12-11T01:13:06.950Z,98121.88
2022-12-11T01:15:41.834Z,98131.20
2022-12-11T01:18:12.032Z,98133.98
2022-12-11T01:20:40.700Z,98141.24
2022-12-11T01:23:10.140Z,98138.66
2022-12-11T01:25:37.719Z,98132.77
2022-12-11T01:28:06.267Z,98132.77
2022-12-11T01:30:34.455Z,98134.16
2022-12-11T01:33:02.561Z,98138.13
2022-12-11T01:35:30.187Z,98145.91
2022-12-11T01:37:57.780Z,98145.21
2022-12-11T01:40:25.353Z,98140.02
2022-12-11T01:42:52.980Z,98142.44
2022-12-11T01:45:36.071Z,98143.83
2022-12-11T01:48:06.209Z,98142.45
2022-12-11T01:50:39.552Z,98139.52
2022-12-11T01:53:10.404Z,98139.36
2022-12-11T01:55:39.482Z,98145.23
2022-12-11T01:58:08.671Z,98150.43
2022-12-11T02:00:36.321Z,98153.19
2022-12-11T02:03:04.276Z,98157.15
2022-12-11T02:05:32.007Z,98153.55
2022-12-11T02:08:02.963Z,98157.52
2022-12-11T02:10:56.267Z,98161.52
2022-12-11T02:13:43.871Z,98159.45
2022-12-11T02:16:21.355Z,98155.66
2022-12-11T02:18:58.751Z,98158.79
2022-12-11T02:21:40.247Z,98166.91
2022-12-11T02:24:25.800Z,98164.84
2022-12-11T02:27:21.324Z,98165.02
2022-12-11T02:29:54.586Z,98155.36
2022-12-11T02:32:32.112Z,98161.59
2022-12-11T02:35:11.863Z,98162.12
2022-12-11T02:37:43.769Z,98153.48
2022-12-11T02:40:14.426Z,98150.91
2022-12-11T02:42:44.023Z,98150.23
2022-12-11T02:45:13.553Z,98156.95
2022-12-11T02:47:44.134Z,98155.59
2022-12-11T02:50:15.776Z,98146.43
2022-12-11T02:52:44.896Z,98150.23
2022-12-11T02:55:15.545Z,98154.55
2022-12-11T02:57:47.728Z,98156.10
2022-12-11T03:00:15.574Z,98148.17
2022-12-11T03:02:43.745Z,98149.02
2022-12-11T03:05:13.532Z,98146.27
2022-12-11T03:07:44.287Z,98139.01
2022-12-11T03:10:15.489Z,98134.17
2022-12-11T03:12:51.808Z,98133.83
2022-12-11T03:15:26.341Z,98134.52
2022-12-11T03:18:12.427Z,98136.40
2022-12-11T03:20:44.152Z,98136.73
2022-12-11T03:23:14.628Z,98135.69
2022-12-11T03:25:56.904Z,98136.90
2022-12-11T03:28:34.300Z,98136.20
2022-12-11T03:31:09.070Z,98134.98
2022-12-11T03:33:41.778Z,98125.34
2022-12-11T03:36:17.626Z,98130.15
2022-12-11T03:38:53.755Z,98128.08
2022-12-11T03:41:25.891Z,98127.39
2022-12-11T03:43:58.680Z,98132.73
2022-12-11T03:46:38.439Z,98134.80
2022-12-11T03:49:14.546Z,98136.51
2022-12-11T03:51:45.078Z,98141.17
2022-12-11T03:54:13.055Z,98138.58
2022-12-11T03:56:43.160Z,98139.96
2022-12-11T03:59:10.993Z,98137.71
2022-12-11T04:01:38.999Z,98133.58
2022-12-11T04:04:06.718Z,98133.05
2022-12-11T04:06:34.357Z,98136.34
2022-12-11T04:09:02.153Z,98136.84
2022-12-11T04:11:29.836Z,98147.70
2022-12-11T04:13:57.461Z,98151.33
2022-12-11T04:16:25.033Z,98149.27
2022-12-11T04:18:52.620Z,98149.10
2022-12-11T04:21:20.204Z,98153.23
2022-12-11T04:23:47.809Z,98156.34
2022-12-11T04:26:20.510Z,98156.33
2022-12-11T04:28:49.606Z,98163.41
2022-12-11T04:31:22.269Z,98173.08
2022-12-11T04:33:50.210Z,98170.14
2022-12-11T04:36:18.040Z,98168.26
2022-12-11T04:38:45.637Z,98171.17
2022-12-11T04:41:15.735Z,98176.53
2022-12-11T04:43:43.915Z,98176.88
2022-12-11T04:46:17.692Z,98192.21
2022-12-11T04:48:45.774Z,98199.29
2022-12-11T04:51:13.860Z,98213.95
2022-12-11T04:53:41.615Z,98214.95
2022-12-11T04:56:10.946Z,98213.40
2022-12-11T04:58:39.298Z,98216.34
2022-12-11T05:01:11.941Z,98213.40
2022-12-11T05:03:39.855Z,98215.13
2022-12-11T05:06:08.852Z,98219.77
2022-12-11T05:08:37.950Z,98221.33
2022-12-11T05:11:10.232Z,98225.80
2022-12-11T05:13:37.955Z,98229.77
2022-12-11T05:16:07.492Z,98234.76
2022-12-11T05:18:35.814Z,98231.14
2022-12-11T05:21:10.494Z,98232.34
2022-12-11T05:23:38.616Z,98237.37
2022-12-11T05:26:14.091Z,98236.66
2022-12-11T05:28:41.729Z,98235.64
2022-12-11T05:31:14.605Z,98237.52
2022-12-11T05:33:43.061Z,98235.27
2022-12-11T05:36:17.039Z,98231.85
2022-12-11T05:38:45.375Z,98231.51
2022-12-11T05:41:15.802Z,98232.52
2022-12-11T05:43:43.930Z,98233.05
2022-12-11T05:46:14.618Z,98228.05
2022-12-11T05:48:43.651Z,98228.38
2022-12-11T05:51:12.025Z,98224.40
2022-12-11T05:53:41.103Z,98226.98
2022-12-11T05:56:13.508Z,98230.95
2022-12-11T05:58:42.327Z,98233.69
2022-12-11T06:01:13.074Z,98238.69
2022-12-11T06:03:41.087Z,98247.14
2022-12-11T06:06:08.688Z,98248.85
2022-12-11T06:08:36.357Z,98256.95
2022-12-11T06:11:05.188Z,98261.27
2022-12-11T06:13:33.141Z,98264.02
2022-12-11T06:16:05.468Z,98273.15
2022-12-11T06:18:36.817Z,98285.06
2022-12-11T06:21:28.414Z,98289.21
2022-12-11T06:23:57.702Z,98290.94
2022-12-11T06:26:26.808Z,98300.27
2022-12-11T06:28:54.396Z,98305.11
2022-12-11T06:31:22.072Z,98310.97
2022-12-11T06:33:49.727Z,98314.41
2022-12-11T06:36:19.555Z,98315.62
2022-12-11T06:38:47.348Z,98315.80
2022-12-11T06:41:15.475Z,98313.41
2022-12-11T06:43:43.301Z,98321.18
2022-12-11T06:46:14.236Z,98331.71
2022-12-11T06:48:42.993Z,98335.16
2022-12-11T06:51:16.679Z,98341.38
2022-12-11T06:53:44.580Z,98342.60
2022-12-11T06:56:14.357Z,98356.90
2022-12-11T06:58:43.220Z,98359.82
2022-12-11T07:01:26.398Z,98366.88
2022-12-11T07:03:55.628Z,98371.88
2022-12-11T07:06:24.403Z,98371.36
2022-12-11T07:08:52.291Z,98368.27
2022-12-11T07:11:21.256Z,98372.05
2022-12-11T07:13:48.904Z,98373.63
2022-12-11T07:16:17.685Z,98369.67
2022-12-11T07:18:50.230Z,98373.81
2022-12-11T07:21:19.358Z,98377.27
2022-12-11T07:23:48.520Z,98378.27
2022-12-11T07:26:19.481Z,98385.52
2022-12-11T07:28:47.104Z,98390.70
2022-12-11T07:31:18.172Z,98395.03
2022-12-11T07:33:45.876Z,98393.67
2022-12-11T07:36:15.279Z,98397.83
2022-12-11T07:38:43.033Z,98393.90
2022-12-11T07:41:12.759Z,98396.17
2022-12-11T07:43:40.928Z,98402.23
2022-12-11T07:46:20.709Z,98408.30
2022-12-11T07:48:49.561Z,98416.93
2022-12-11T07:51:22.222Z,98420.73
2022-12-11T07:53:50.313Z,98426.11
2022-12-11T07:56:18.885Z,98430.27
2022-12-11T07:58:46.938Z,98439.77
2022-12-11T08:01:26.132Z,98445.83
2022-12-11T08:03:54.928Z,98454.48
2022-12-11T08:06:28.613Z,98453.44
2022-12-11T08:08:57.949Z,98457.77
2022-12-11T08:11:26.519Z,98460.55
2022-12-11T08:13:54.975Z,98462.12
2022-12-11T08:16:23.233Z,98460.76
2022-12-11T08:18:51.422Z,98463.17
2022-12-11T08:21:20.594Z,98473.85
2022-12-11T08:23:49.024Z,98480.55
2022-12-11T08:26:22.776Z,98481.75
2022-12-11T08:28:50.436Z,98484.88
2022-12-11T08:31:19.341Z,98485.91
2022-12-11T08:33:47.976Z,98487.64
2022-12-11T08:36:18.680Z,98493.34
2022-12-11T08:38:47.130Z,98497.99
2022-12-11T08:41:16.124Z,98508.52
2022-12-11T08:43:44.580Z,98521.80
2022-12-11T08:46:13.524Z,98529.77
2022-12-11T08:48:42.680Z,98531.66
2022-12-11T08:51:16.015Z,98527.35
2022-12-11T08:53:43.870Z,98537.34
2022-12-11T08:56:14.116Z,98534.91
2022-12-11T08:58:42.714Z,98543.52
2022-12-11T09:01:25.888Z,98541.98
2022-12-11T09:03:55.115Z,98548.02
2022-12-11T09:06:25.276Z,98553.04
2022-12-11T09:08:54.353Z,98545.27
2022-12-11T09:11:24.923Z,98544.23
2022-12-11T09:13:53.469Z,98551.13
2022-12-11T09:16:23.929Z,98547.30
2022-12-11T09:18:53.830Z,98547.98
2022-12-11T09:21:24.516Z,98542.77
2022-12-11T09:23:57.084Z,98535.21
2022-12-11T09:26:25.472Z,98541.06
2022-12-11T09:28:53.374Z,98547.45
2022-12-11T09:31:25.221Z,98547.97
2022-12-11T09:33:56.964Z,98550.75
2022-12-11T09:36:25.311Z,98550.74
2022-12-11T09:38:53.322Z,98550.05
2022-12-11T09:41:20.816Z,98545.40
2022-12-11T09:44:16.528Z,98551.61
2022-12-11T09:46:46.215Z,98545.23
2022-12-11T09:49:41.275Z,98539.19
2022-12-11T09:52:15.463Z,98529.01
2022-12-11T09:54:57.252Z,98530.59
2022-12-11T09:57:33.771Z,98535.44
2022-12-11T10:00:17.999Z,98534.24
2022-12-11T10:03:09.367Z,98530.45
2022-12-11T10:05:46.113Z,98522.86
2022-12-11T10:08:16.574Z,98514.95
2022-12-11T10:10:53.605Z,98516.48
2022-12-11T10:13:33.325Z,98518.73
2022-12-11T10:16:13.096Z,98526.31
2022-12-11T10:18:41.795Z,98529.39
2022-12-11T10:21:10.527Z,98536.63
2022-12-11T10:23:53.630Z,98543.52
2022-12-11T10:26:23.292Z,98547.81
2022-12-11T10:28:51.033Z,98556.63
2022-12-11T10:31:34.193Z,98561.12
2022-12-11T10:34:13.471Z,98561.16
2022-12-11T10:36:42.799Z,98554.27
2022-12-11T10:39:16.450Z,98551.15
2022-12-11T10:41:47.016Z,98552.34
2022-12-11T10:44:31.553Z,98561.83
2022-12-11T10:47:06.605Z,98568.20
2022-12-11T10:49:36.477Z,98577.83
2022-12-11T10:52:21.971Z,98579.88
2022-12-11T10:54:58.524Z,98584.54
2022-12-11T10:57:33.814Z,98582.46
2022-12-11T11:00:02.960Z,98585.02
2022-12-11T11:02:34.135Z,98583.63
2022-12-11T11:05:15.711Z,98582.24
2022-12-11T11:07:43.699Z,98588.45
2022-12-11T11:10:11.294Z,98581.89
2022-12-11T11:12:41.947Z,98578.96
2022-12-11T11:15:18.002Z,98576.88
2022-12-11T11:17:56.040Z,98570.53
2022-12-11T11:20:27.308Z,98567.79
2022-12-11T11:23:01.524Z,98562.96
2022-12-11T11:25:32.791Z,98565.04
2022-12-11T11:28:03.603Z,98567.99
2022-12-11T11:30:35.695Z,98568.02
2022-12-11T11:33:15.781Z,98574.25
2022-12-11T11:35:57.332Z,98584.46
2022-12-11T11:38:42.664Z,98587.59
2022-12-11T11:41:28.088Z,98598.28
2022-12-11T11:44:04.129Z,98601.56
2022-12-11T11:46:44.405Z,98604.32
2022-12-11T11:49:33.325Z,98601.73
2022-12-11T11:52:08.636Z,98608.46
2022-12-11T11:54:40.965Z,98618.14
2022-12-11T11:57:27.281Z,98620.05
2022-12-11T12:00:00.073Z,98621.30
2022-12-11T12:02:28.032Z,98620.60
2022-12-11T12:04:56.135Z,98632.50
2022-12-11T12:07:35.670Z,98631.63
2022-12-11T12:10:26.238Z,98635.64
2022-12-11T12:12:57.690Z,98641.52
2022-12-11T12:15:34.317Z,98644.30
2022-12-11T12:18:06.500Z,98642.72
2022-12-11T12:20:48.256Z,98650.14
2022-12-11T12:23:37.689Z,98644.77
2022-12-11T12:26:28.701Z,98648.21
2022-12-11T12:29:21.377Z,98646.67
2022-12-11T12:32:20.335Z,98648.05
2022-12-11T12:35:03.149Z,98643.55
2022-12-11T12:38:05.381Z,98644.07
2022-12-11T12:40:36.454Z,98643.05
2022-12-11T12:43:31.936Z,98645.46
2022-12-11T12:46:24.312Z,98648.23
2022-12-11T12:48:55.298Z,98652.02
2022-12-11T12:51:23.430Z,98654.80
2022-12-11T12:54:06.687Z,98659.80
2022-12-11T12:56:40.489Z,98663.27
2022-12-11T12:59:23.329Z,98665.87
2022-12-11T13:01:57.118Z,98669.34
2022-12-11T13:07:30.702Z,98691.95
2022-12-11T13:10:04.784Z,98701.26
2022-12-11T13:12:41.278Z,98711.42
2022-12-11T13:15:29.379Z,98717.83
2022-12-11T13:17:58.893Z,98723.03
2022-12-11T13:20:32.440Z,98722.55
2022-12-11T13:23:06.522Z,98722.73
2022-12-11T13:25:48.086Z,98723.79
2022-12-11T13:28:46.412Z,98722.93
2022-12-11T13:31:13.991Z,98721.17
2022-12-11T13:33:45.820Z,98719.77
2022-12-11T13:36:17.913Z,98724.96
2022-12-11T13:38:52.191Z,98729.66
2022-12-11T13:41:20.238Z,98735.73
2022-12-11T13:43:50.494Z,98742.64
2022-12-11T13:46:30.893Z,98743.48
2022-12-11T13:49:02.244Z,98743.13
2022-12-11T13:51:32.742Z,98744.67
2022-12-11T13:54:16.665Z,98741.21
2022-12-11T13:57:00.483Z,98740.31
2022-12-11T13:59:38.409Z,98746.89
2022-12-11T14:02:18.050Z,98757.42
2022-12-11T14:04:47.792Z,98766.40
2022-12-11T14:07:20.680Z,98768.11
2022-12-11T14:09:48.399Z,98769.29
2022-12-11T14:12:21.712Z,98776.55
2022-12-11T14:14:53.649Z,98780.15
2022-12-11T14:17:28.295Z,98788.42
2022-12-11T14:19:59.229Z,98786.11
2022-12-11T14:22:28.944Z,98790.77
2022-12-11T14:24:59.971Z,98796.98
2022-12-11T14:27:27.756Z,98799.36
2022-12-11T14:29:55.995Z,98801.26
2022-12-11T14:32:36.335Z,98806.96
2022-12-11T14:35:10.680Z,98816.08
2022-12-11T14:37:39.356Z,98827.95
2022-12-11T14:40:15.748Z,98825.33
2022-12-11T14:42:48.357Z,98826.69
2022-12-11T14:45:24.511Z,98825.62
2022-12-11T14:47:53.079Z,98830.93
2022-12-11T14:50:26.800Z,98833.46
2022-12-11T14:53:02.327Z,98834.79
2022-12-11T14:55:33.536Z,98831.14
2022-12-11T14:58:17.609Z,98830.77
2022-12-11T15:01:03.425Z,98833.84
2022-12-11T15:03:32.410Z,98836.77
2022-12-11T15:06:01.206Z,98840.42
2022-12-11T15:08:34.471Z,98840.91
2022-12-11T15:11:09.760Z,98843.67
2022-12-11T15:13:47.108Z,98843.79
2022-12-11T15:16:15.236Z,98840.84
2022-12-11T15:18:43.111Z,98849.63
2022-12-11T15:21:12.520Z,98850.81
2022-12-11T15:23:55.479Z,98851.81
2022-12-11T15:26:40.061Z,98855.27
2022-12-11T15:29:27.571Z,98861.60
2022-12-11T15:32:19.861Z,98864.20
2022-12-11T15:34:48.712Z,98865.73
2022-12-11T15:37:36.101Z,98865.90
2022-12-11T15:40:05.136Z,98870.20
2022-12-11T15:42:36.756Z,98868.46
2022-12-11T15:45:08.237Z,98871.58
2022-12-11T15:47:35.788Z,98867.59
2022-12-11T15:50:12.852Z,98861.31
2022-12-11T15:52:40.619Z,98867.65
2022-12-11T15:55:08.724Z,98864.87
2022-12-11T15:57:37.099Z,98867.10
2022-12-11T16:00:05.471Z,98871.21
2022-12-11T16:02:33.245Z,98871.66
2022-12-11T16:05:00.936Z,98877.65
2022-12-11T16:07:28.538Z,98878.49
2022-12-11T16:09:56.123Z,98879.84
2022-12-11T16:12:23.753Z,98880.19
2022-12-11T16:14:51.346Z,98884.86
2022-12-11T16:17:18.944Z,98892.10
2022-12-11T16:19:46.524Z,98889.68
2022-12-11T16:22:14.490Z,98893.28
2022-12-11T16:24:42.089Z,98891.40
2022-12-11T16:27:09.717Z,98893.80
2022-12-11T16:29:39.746Z,98896.52
2022-12-11T16:32:08.501Z,98892.89
2022-12-11T16:34:37.141Z,98893.36
2022-12-11T16:37:06.466Z,98893.84
2022-12-11T16:39:34.937Z,98897.80
2022-12-11T16:42:03.559Z,98908.30
2022-12-11T16:44:31.175Z,98910.69
2022-12-11T16:46:59.120Z,98911.39
2022-12-11T16:49:26.774Z,98915.70
2022-12-11T16:51:54.327Z,98914.81
2022-12-11T16:54:21.919Z,98911.68
2022-12-11T16:56:49.506Z,98913.86
2022-12-11T16:59:17.069Z,98908.31
2022-12-11T17:01:44.715Z,98906.93
2022-12-11T17:04:12.399Z,98909.50
2022-12-11T17:06:40.317Z,98911.57
2022-12-11T17:09:08.206Z,98911.88
2022-12-11T17:11:35.801Z,98914.61
2022-12-11T17:14:03.381Z,98910.30
2022-12-11T17:16:30.971Z,98906.11
2022-12-11T17:18:58.831Z,98902.66
2022-12-11T17:21:26.408Z,98901.45
2022-12-11T17:23:54.059Z,98903.85
2022-12-11T17:26:21.625Z,98901.96
2022-12-11T17:28:49.208Z,98904.15
2022-12-11T17:31:18.430Z,98905.68
2022-12-11T17:33:47.110Z,98904.30
2022-12-11T17:36:16.688Z,98904.31
2022-12-11T17:38:44.696Z,98906.88
2022-12-11T17:41:20.045Z,98908.63
2022-12-11T17:43:52.618Z,98911.55
2022-12-11T17:46:21.074Z,98906.73
2022-12-11T17:48:48.931Z,98909.11
2022-12-11T17:51:18.488Z,98913.40
2022-12-11T17:53:46.121Z,98908.51
2022-12-11T17:56:13.781Z,98910.40
2022-12-11T17:58:41.383Z,98912.96
2022-12-11T18:01:10.411Z,98913.63
2022-12-11T18:03:38.298Z,98913.92
2022-12-11T18:06:09.579Z,98913.58
2022-12-11T18:08:37.386Z,98920.96
2022-12-11T18:11:11.143Z,98921.83
2022-12-11T18:13:38.795Z,98930.61
2022-12-11T18:16:13.113Z,98929.04
2022-12-11T18:18:40.797Z,98933.61
2022-12-11T18:21:08.402Z,98938.23
2022-12-11T18:23:36.021Z,98942.39
2022-12-11T18:26:03.591Z,98938.38
2022-12-11T18:28:31.166Z,98939.05
2022-12-11T18:31:02.795Z,98943.15
2022-12-11T18:33:30.830Z,98942.45
2022-12-11T18:35:58.544Z,98945.38
2022-12-11T18:38:26.134Z,98947.31
2022-12-11T18:40:53.798Z,98954.59
2022-12-11T18:43:21.566Z,98961.69
2022-12-11T18:45:49.308Z,98958.89
2022-12-11T18:48:16.987Z,98964.05
2022-12-11T18:50:46.313Z,98967.45
2022-12-11T18:53:14.883Z,98964.45
2022-12-11T18:55:47.492Z,98959.27
2022-12-11T18:58:19.863Z,98961.84
2022-12-11T19:00:47.546Z,98965.09
2022-12-11T19:03:15.216Z,98968.87
2022-12-11T19:05:43.325Z,98977.96
2022-12-11T19:08:12.654Z,98988.12
2022-12-11T19:10:46.257Z,98989.30
2022-12-11T19:13:14.800Z,98992.54
2022-12-11T19:15:45.053Z,98987.30
2022-12-11T19:18:12.737Z,98986.05
2022-12-11T19:20:48.904Z,98982.42
2022-12-11T19:23:17.659Z,98980.48
2022-12-11T19:25:47.725Z,98982.17
2022-12-11T19:28:15.608Z,98983.19
2022-12-11T19:30:46.485Z,98981.58
2022-12-11T19:33:14.891Z,98985.00
2022-12-11T19:35:43.017Z,98986.38
2022-12-11T19:38:11.270Z,98985.16
2022-12-11T19:40:43.834Z,98983.90
2022-12-11T19:43:11.477Z,98985.79
2022-12-11T19:45:39.081Z,98987.20
2022-12-11T19:48:06.781Z,98991.70
2022-12-11T19:50:37.452Z,98998.04
2022-12-11T19:53:05.151Z,98996.83
2022-12-11T19:55:32.774Z,98995.60
2022-12-11T19:58:00.384Z,98999.85
2022-12-11T20:00:28.074Z,98999.69
2022-12-11T20:02:55.678Z,98999.19
2022-12-11T20:05:23.392Z,99001.98
2022-12-11T20:07:52.044Z,99001.63
2022-12-11T20:10:19.695Z,99003.31
2022-12-11T20:12:47.321Z,99004.89
2022-12-11T20:15:15.009Z,99008.20
2022-12-11T20:17:42.656Z,99012.17
2022-12-11T20:20:11.498Z,99013.14
2022-12-11T20:22:39.102Z,99019.20
2022-12-11T20:25:06.932Z,99019.52
2022-12-11T20:27:34.561Z,99018.98
2022-12-11T20:30:02.722Z,99020.36
2022-12-11T20:32:30.354Z,99026.44
2022-12-11T20:34:58.317Z,99023.59
2022-12-11T20:37:25.974Z,99024.59
2022-12-11T20:39:53.577Z,99019.59
2022-12-11T20:42:21.264Z,99024.23
2022-12-11T20:44:49.572Z,99022.91
2022-12-11T20:47:18.416Z,99019.58
2022-12-11T20:49:47.853Z,99023.71
2022-12-11T20:52:15.793Z,99024.19
2022-12-11T20:54:43.907Z,99025.08
2022-12-11T20:57:12.412Z,99027.86
2022-12-11T20:59:40.009Z,99026.32
2022-12-11T21:02:07.715Z,99032.48
2022-12-11T21:04:41.423Z,99035.07
2022-12-11T21:07:10.196Z,99041.41
2022-12-11T21:09:38.486Z,99048.27
2022-12-11T21:12:06.895Z,99056.48
2022-12-11T21:14:34.715Z,99055.77
2022-12-11T21:17:02.323Z,99054.29
2022-12-11T21:19:29.988Z,99058.92
2022-12-11T21:21:57.647Z,99064.05
2022-12-11T21:24:27.668Z,99066.63
2022-12-11T21:26:57.614Z,99077.53
2022-12-11T21:29:27.020Z,99075.52
2022-12-11T21:31:55.571Z,99079.23
2022-12-11T21:34:25.489Z,99072.99
2022-12-11T21:36:54.605Z,99069.66
2022-12-11T21:39:23.807Z,99079.78
2022-12-11T21:41:51.380Z,99081.08
2022-12-11T21:47:06.572Z,99080.54
2022-12-11T21:49:34.398Z,99082.46
2022-12-11T21:52:01.986Z,99080.64
2022-12-11T21:54:29.597Z,99082.98
2022-12-11T21:56:57.260Z,99084.69
2022-12-11T21:59:24.953Z,99093.10
2022-12-11T22:01:52.652Z,99093.16
2022-12-11T22:04:20.279Z,99093.57
2022-12-11T22:06:48.154Z,99096.10
2022-12-11T22:09:16.512Z,99098.69
2022-12-11T22:11:45.443Z,99097.48
2022-12-11T22:14:13.945Z,99106.75
2022-12-11T22:16:42.868Z,99103.02
2022-12-11T22:19:11.051Z,99106.13
2022-12-11T22:21:38.985Z,99101.84
2022-12-11T22:24:06.953Z,99098.92
2022-12-11T22:26:34.562Z,99102.77
2022-12-11T22:29:02.222Z,99102.52
2022-12-11T22:31:29.791Z,99097.13
2022-12-11T22:33:57.757Z,99099.64
2022-12-11T22:36:27.030Z,99101.63
2022-12-11T22:38:54.896Z,99091.02
2022-12-11T22:41:26.359Z,99091.26
2022-12-11T22:43:55.083Z,99092.39
2022-12-11T22:46:26.051Z,99095.43
2022-12-11T22:48:53.901Z,99110.37
2022-12-11T22:51:21.871Z,99111.46
2022-12-11T22:53:49.529Z,99110.55
2022-12-11T22:56:17.159Z,99113.32
2022-12-11T22:58:44.787Z,99119.73
2022-12-11T23:01:16.875Z,99118.61
2022-12-11T23:03:45.620Z,99123.54
2022-12-11T23:06:16.432Z,99126.62
2022-12-11T23:08:44.516Z,99123.66
2022-12-11T23:11:12.125Z,99124.85
2022-12-11T23:13:40.202Z,99122.70
2022-12-11T23:16:07.933Z,99124.30
2022-12-11T23:18:35.795Z,99120.61
2022-12-11T23:21:04.345Z,99116.54
2022-12-11T23:23:32.154Z,99114.95
2022-12-11T23:25:59.863Z,99124.63
2022-12-11T23:28:27.509Z,99134.61
2022-12-11T23:30:55.203Z,99135.98
2022-12-11T23:33:22.854Z,99133.10
2022-12-11T23:35:50.560Z,99127.73
2022-12-11T23:38:18.165Z,99123.23
2022-12-11T23:40:45.788Z,99124.09
2022-12-11T23:43:13.342Z,99128.66
2022-12-11T23:45:43.680Z,99128.44
2022-12-11T23:48:12.607Z,99128.27
2022-12-11T23:50:41.410Z,99128.94
2022-12-11T23:53:09.670Z,99131.42
2022-12-11T23:55:41.909Z,99129.09
2022-12-11T23:58:09.820Z,99128.21
